Korsakov, Russia
Current Conditions -  °F | °C
As of 11:00 PM on Friday 31 Oct 2014 (Local Time) from UHSS Reporting Station
Scattered Clouds Scattered Clouds  
Wind Chill: 25°   Ceiling: Unl
Heat Index: 30°   Visibility: 5mi
Dew Point: 28°   Wind: 4mph
Humidity: 93%   Direction: 30°NNE
Pressure: 30.21"   Gusts: NA
Location:  46.64°N, 142.78°E
Report Text: UHSS 311200Z 03002MPS 8000 SCT040 M01/M02 Q1023 RMKQFE766/1021
Loading
Personal Weather Stations






























Interactive Weather Map
Tropical Storm Tracking
New forecast layout! Learn more

10-Day Weather Forecast

Advertisements
Track Severe Weather on mobile